Aviation Digital Data Service (ADDS)

Output produced by METARs form (1329 UTC 19 July 2018)
found at http://www.aviationweather.gov/adds/metars/
 
KFIG 191254Z AUTO 03004KT 10SM CLR 18/13 A3015 RMK AO2 SLP205 T01780133
KFIG 191154Z AUTO 06003KT 10SM BKN050 14/13 A3015 RMK AO2 SLP206 T01390128 10139 20111 51007
KFIG 191054Z AUTO 00000KT 10SM OVC050 12/12 A3015 RMK AO2 SLP205 T01220117
KFIG 190954Z AUTO 35005KT 10SM BKN050 11/11 A3014 RMK AO2 SLP201 T01110106
KFIG 190854Z AUTO 36004KT 10SM SCT050 12/11 A3013 RMK AO2 SLP198 T01170111 53009
KFIG 190754Z AUTO 35003KT 10SM CLR 12/11 A3012 RMK AO2 SLP193 T01220111
KFIG 190654Z AUTO 02003KT 10SM CLR 13/12 A3011 RMK AO2 SLP191 T01280117
KFIG 190554Z AUTO 35005KT 10SM CLR 13/12 A3011 RMK AO2 SLP189 T01330122 10228 20133 51012
KFIG 190454Z AUTO 02003KT 10SM CLR 15/13 A3010 RMK AO2 SLP184 T01500128 402720133
KFIG 190354Z AUTO 01003KT 10SM CLR 16/13 A3009 RMK AO2 SLP181 T01610133
KFIG 190254Z AUTO 33004KT 10SM CLR 17/13 A3007 RMK AO2 SLP176 T01670133 53013
KFIG 190154Z AUTO 34004KT 10SM SCT060 18/14 A3006 RMK AO2 SLP172 T01780139
KFIG 190054Z AUTO 35005KT 10SM FEW060 19/15 A3004 RMK AO2 SLP167 T01890150
KFIG 182354Z AUTO 33003KT 10SM CLR 23/13 A3003 RMK AO2 SLP163 T02280128 10272 20228 55001
KFIG 182254Z AUTO 33005KT 10SM CLR 26/12 A3003 RMK AO2 SLP161 T02560117
KFIG 182154Z AUTO 33007KT 10SM CLR 26/11 A3003 RMK AO2 SLP161 T02610111
KFIG 182054Z AUTO 01007KT 10SM SCT060 26/12 A3004 RMK AO2 SLP163 T02610117 57006
KFIG 181954Z AUTO 33007KT 10SM CLR 26/11 A3004 RMK AO2 SLP165 T02610106
KFIG 181854Z AUTO 35004KT 10SM SCT055 BKN070 26/12 A3005 RMK AO2 SLP167 T02610117
KFIG 181754Z AUTO 34005KT 10SM BKN070 24/13 A3006 RMK AO2 SLP170 T02440133 10256 20156 58004
KFIG 181654Z AUTO 02007KT 350V050 10SM SCT049 BKN065 25/13 A3006 RMK AO2 SLP172 T02500133
KFIG 181554Z AUTO 04006KT 10SM FEW042 24/13 A3007 RMK AO2 SLP175 T02390133
KFIG 181454Z AUTO 06003KT 10SM FEW032 SCT041 22/14 A3007 RMK AO2 SLP174 T02220144 51005
KFIG 181354Z AUTO 00000KT 10SM CLR 21/14 A3007 RMK AO2 SLP175 T02060139
KFIG 181254Z AUTO 00000KT 10SM CLR 19/14 A3006 RMK AO2 SLP172 T01890144
KFIG 181154Z AUTO 19003KT 10SM CLR 16/13 A3005 RMK AO2 SLP170 70023 T01560133 10161 20133 53012
KFIG 181054Z AUTO 00000KT 10SM CLR 15/13 A3003 RMK AO2 SLP160 T01500128
KFIG 180954Z AUTO 32003KT 10SM CLR 14/12 A3003 RMK AO2 SLP160 T01390122
KFIG 180854Z AUTO 34003KT 10SM CLR 14/12 A3002 RMK AO2 SLP156 T01390122 53007
KFIG 180754Z AUTO 34004KT 10SM CLR 14/13 A3000 RMK AO2 SLP151 T01440128
KFIG 180654Z AUTO 34004KT 10SM CLR 16/13 A3000 RMK AO2 SLP148 T01560128
KFIG 180554Z AUTO 34003KT 10SM CLR 16/13 A2999 RMK AO2 SLP148 T01560128 10228 20156 55001
KFIG 180454Z AUTO 00000KT 10SM CLR 16/13 A2999 RMK AO2 SLP148 T01610133 402940161
KFIG 180354Z AUTO 34004KT 10SM CLR 16/14 A2999 RMK AO2 SLP149 T01610139
KFIG 180254Z AUTO 31006KT 10SM CLR 18/14 A3000 RMK AO2 SLP149 T01830139 51013
KFIG 180154Z AUTO 32005KT 10SM CLR 18/14 A2999 RMK AO2 SLP147 T01830144